Airfield :
LOGIN :

Register | Disclaimer

   EN    FR    IT 

 










Legend :    VFR   Marginal VFR   IFR   Intensive IFR   Very Intensive IFR
Visi :
Ceiling :
>= 8 km
>= 3000ft
5 to 8 km
1000 to 3000 ft
1500m to 5 km
500 to 1000 ft
800 to 1500m
200 to 500 ft
< 800m
< 200 ft
Symbols :   Thunderstorms  Fog  Heavy snow  Heavy precipitations  Wind > 20 kt
SIGMETs :     Misc.  Thunderstorms  Icing  Turbulence  Mountain Waves  Volcanic Ashes







- Airport Elevation : 55 ft
- IATA code : DSA
- Download approach charts


EGCN - Robin Hood Doncaster Sheffield

CURRENT METAR :
  • 191220Z 09004KT 050V120 3700 RA FEW018 SCT024 14/14 Q1003

EXPIRED METARs :
  • 191150Z 08004KT 050V110 2700 RA SCT026 BKN044 14/13 Q1004
  • 191120Z 13004KT 090V170 1300 +RA FEW002 SCT005 BKN017 14/14 Q1005
  • 191050Z 16004KT 2400 +RA SCT006 BKN023 13/13 Q1005
  • 191020Z 15006KT 6000 -RA BKN005 OVC008 13/13 Q1006
  • 190950Z 16006KT 8000 BKN005 OVC009 13/13 Q1006

TAF TAF EGCN
Valid from the 19 at 12:00 until the 20 at 12:00 UTC


191053Z 1912/2012 13006KT 9999 SCT008 BKN015
TEMPO 1912/1920 6000 RA BKN006
PROB30
TEMPO 1912/1917 3000 +RA BKN004
TEMPO 1920/2009 8000 -RA BKN012
BECMG 2009/2012 28010KT
No reported NOTAMs for that airfield.



MET'MAP, your aeronautical weather chart ! - Copyright ORBIFLY December 2007 - Disclaimer

ORBIFLY MET'MAP TEAM :

Programming & Development : Alexandra Zaïnal
Concept & Development : Baudouin d'Aumeries
Co-Development & Prog : Marc-Olivier Méhu
Technical & hardware support : Manuel Goepfert

Contact : metmap@orbifly.com




SOURCES & CREDITS :

   NOAA